sensor_id;sensor_type;location;lat;lon;timestamp;pressure;altitude;pressure_sealevel;temperature;humidity
66668;BME280;57205;51.438;-2.006;2022-09-03T00:02:30;100150.19;;;16.82;74.62
66668;BME280;57205;51.438;-2.006;2022-09-03T00:13:43;100119.50;;;16.70;75.72
66668;BME280;57205;51.438;-2.006;2022-09-03T00:16:11;100125.06;;;16.65;76.09
66668;BME280;57205;51.438;-2.006;2022-09-03T00:18:44;100125.19;;;16.59;76.36
66668;BME280;57205;51.438;-2.006;2022-09-03T00:21:15;100116.63;;;16.57;76.62
66668;BME280;57205;51.438;-2.006;2022-09-03T00:23:43;100115.69;;;16.53;76.98
66668;BME280;57205;51.438;-2.006;2022-09-03T00:29:26;100115.28;;;16.46;77.02
66668;BME280;57205;51.438;-2.006;2022-09-03T00:31:47;100113.25;;;16.43;77.25
66668;BME280;57205;51.438;-2.006;2022-09-03T00:34:36;100104.16;;;16.39;77.52
66668;BME280;57205;51.438;-2.006;2022-09-03T00:37:03;100112.59;;;16.38;77.77
66668;BME280;57205;51.438;-2.006;2022-09-03T00:39:29;100101.63;;;16.34;77.87
66668;BME280;57205;51.438;-2.006;2022-09-03T00:42:21;100105.25;;;16.30;78.16
66668;BME280;57205;51.438;-2.006;2022-09-03T01:00:52;100100.28;;;16.06;79.37
66668;BME280;57205;51.438;-2.006;2022-09-03T01:06:49;100109.75;;;15.95;79.53
66668;BME280;57205;51.438;-2.006;2022-09-03T01:22:38;100094.13;;;15.75;79.95
66668;BME280;57205;51.438;-2.006;2022-09-03T01:33:51;100094.88;;;15.67;80.64
66668;BME280;57205;51.438;-2.006;2022-09-03T01:36:35;100088.00;;;15.61;80.30
66668;BME280;57205;51.438;-2.006;2022-09-03T01:39:04;100095.94;;;15.57;80.91
66668;BME280;57205;51.438;-2.006;2022-09-03T01:53:12;100099.44;;;15.36;80.88
66668;BME280;57205;51.438;-2.006;2022-09-03T01:58:40;100095.09;;;15.26;81.07
66668;BME280;57205;51.438;-2.006;2022-09-03T02:01:21;100091.59;;;15.26;81.23
66668;BME280;57205;51.438;-2.006;2022-09-03T02:03:47;100094.91;;;15.23;81.72
66668;BME280;57205;51.438;-2.006;2022-09-03T02:06:15;100103.81;;;15.23;81.17
66668;BME280;57205;51.438;-2.006;2022-09-03T02:08:42;100094.72;;;15.19;81.43
66668;BME280;57205;51.438;-2.006;2022-09-03T02:11:09;100098.19;;;15.20;81.76
66668;BME280;57205;51.438;-2.006;2022-09-03T02:13:49;100097.44;;;15.19;82.13
66668;BME280;57205;51.438;-2.006;2022-09-03T02:16:25;100099.81;;;15.21;82.42
66668;BME280;57205;51.438;-2.006;2022-09-03T02:18:59;100092.34;;;15.18;81.65
66668;BME280;57205;51.438;-2.006;2022-09-03T02:21:27;100095.94;;;15.13;81.87
66668;BME280;57205;51.438;-2.006;2022-09-03T02:23:56;100089.25;;;15.11;81.98
66668;BME280;57205;51.438;-2.006;2022-09-03T02:26:23;100090.88;;;15.12;82.04
66668;BME280;57205;51.438;-2.006;2022-09-03T02:28:50;100085.47;;;15.12;82.51
66668;BME280;57205;51.438;-2.006;2022-09-03T02:31:18;100078.00;;;15.09;82.95
66668;BME280;57205;51.438;-2.006;2022-09-03T02:33:46;100087.19;;;15.08;83.06
66668;BME280;57205;51.438;-2.006;2022-09-03T02:36:14;100084.50;;;15.08;82.68
66668;BME280;57205;51.438;-2.006;2022-09-03T02:38:43;100086.03;;;15.00;82.69
66668;BME280;57205;51.438;-2.006;2022-09-03T02:41:08;100087.25;;;14.94;82.84
66668;BME280;57205;51.438;-2.006;2022-09-03T02:46:11;100086.56;;;14.89;83.13
66668;BME280;57205;51.438;-2.006;2022-09-03T02:48:38;100083.38;;;14.87;82.93
66668;BME280;57205;51.438;-2.006;2022-09-03T02:51:03;100083.19;;;14.83;82.93
66668;BME280;57205;51.438;-2.006;2022-09-03T02:53:29;100085.69;;;14.80;83.07
66668;BME280;57205;51.438;-2.006;2022-09-03T02:55:59;100084.41;;;14.77;82.75
66668;BME280;57205;51.438;-2.006;2022-09-03T02:58:25;100081.25;;;14.75;82.63
66668;BME280;57205;51.438;-2.006;2022-09-03T03:00:51;100084.84;;;14.71;83.08
66668;BME280;57205;51.438;-2.006;2022-09-03T03:03:16;100081.03;;;14.72;83.23
66668;BME280;57205;51.438;-2.006;2022-09-03T03:08:11;100079.94;;;14.73;83.62
66668;BME280;57205;51.438;-2.006;2022-09-03T03:10:42;100079.44;;;14.71;83.75
66668;BME280;57205;51.438;-2.006;2022-09-03T03:13:12;100081.97;;;14.67;83.84
66668;BME280;57205;51.438;-2.006;2022-09-03T03:15:37;100075.59;;;14.63;84.23
66668;BME280;57205;51.438;-2.006;2022-09-03T03:18:03;100079.56;;;14.65;84.53
66668;BME280;57205;51.438;-2.006;2022-09-03T03:20:29;100068.91;;;14.60;84.17
66668;BME280;57205;51.438;-2.006;2022-09-03T03:22:54;100082.47;;;14.55;83.95
66668;BME280;57205;51.438;-2.006;2022-09-03T03:25:20;100075.31;;;14.51;83.50
66668;BME280;57205;51.438;-2.006;2022-09-03T03:27:45;100084.31;;;14.46;83.70
66668;BME280;57205;51.438;-2.006;2022-09-03T03:30:11;100084.09;;;14.43;83.57
66668;BME280;57205;51.438;-2.006;2022-09-03T03:32:37;100085.00;;;14.38;83.60
66668;BME280;57205;51.438;-2.006;2022-09-03T03:35:04;100088.31;;;14.35;83.27
66668;BME280;57205;51.438;-2.006;2022-09-03T03:37:30;100085.72;;;14.30;83.42
66668;BME280;57205;51.438;-2.006;2022-09-03T03:39:56;100082.00;;;14.26;83.29
66668;BME280;57205;51.438;-2.006;2022-09-03T03:42:21;100081.50;;;14.24;83.56
66668;BME280;57205;51.438;-2.006;2022-09-03T03:44:47;100085.91;;;14.20;83.72
66668;BME280;57205;51.438;-2.006;2022-09-03T03:47:12;100085.22;;;14.15;83.94
66668;BME280;57205;51.438;-2.006;2022-09-03T03:49:42;100087.41;;;14.13;84.08
66668;BME280;57205;51.438;-2.006;2022-09-03T03:52:08;100085.50;;;14.13;84.64
66668;BME280;57205;51.438;-2.006;2022-09-03T03:54:33;100082.31;;;14.11;84.44
66668;BME280;57205;51.438;-2.006;2022-09-03T03:56:59;100090.69;;;14.10;84.80
66668;BME280;57205;51.438;-2.006;2022-09-03T03:59:24;100080.72;;;14.10;84.94
66668;BME280;57205;51.438;-2.006;2022-09-03T04:01:50;100083.13;;;14.12;85.45
66668;BME280;57205;51.438;-2.006;2022-09-03T04:04:19;100082.81;;;14.13;85.32
66668;BME280;57205;51.438;-2.006;2022-09-03T04:06:44;100085.81;;;14.12;85.68
66668;BME280;57205;51.438;-2.006;2022-09-03T04:09:10;100075.94;;;14.07;85.36
66668;BME280;57205;51.438;-2.006;2022-09-03T04:11:35;100072.25;;;14.03;85.32
66668;BME280;57205;51.438;-2.006;2022-09-03T04:14:01;100069.38;;;14.00;85.42
66668;BME280;57205;51.438;-2.006;2022-09-03T04:16:27;100065.28;;;14.02;85.70
66668;BME280;57205;51.438;-2.006;2022-09-03T04:18:54;100068.19;;;14.06;86.15
66668;BME280;57205;51.438;-2.006;2022-09-03T04:21:28;100064.09;;;14.08;85.94
66668;BME280;57205;51.438;-2.006;2022-09-03T04:23:54;100071.38;;;14.08;85.95
66668;BME280;57205;51.438;-2.006;2022-09-03T04:26:30;100068.38;;;14.09;86.09
66668;BME280;57205;51.438;-2.006;2022-09-03T04:28:56;100062.19;;;14.09;85.82
66668;BME280;57205;51.438;-2.006;2022-09-03T04:31:22;100057.63;;;14.09;86.24
66668;BME280;57205;51.438;-2.006;2022-09-03T04:33:48;100057.63;;;14.09;86.40
66668;BME280;57205;51.438;-2.006;2022-09-03T04:36:16;100057.91;;;14.08;86.53
66668;BME280;57205;51.438;-2.006;2022-09-03T04:38:44;100062.50;;;14.07;86.65
66668;BME280;57205;51.438;-2.006;2022-09-03T04:41:12;100054.41;;;14.07;87.08
66668;BME280;57205;51.438;-2.006;2022-09-03T04:43:39;100059.81;;;14.07;87.22
66668;BME280;57205;51.438;-2.006;2022-09-03T04:46:10;100058.72;;;14.08;87.64
66668;BME280;57205;51.438;-2.006;2022-09-03T04:48:36;100056.22;;;14.12;87.99
66668;BME280;57205;51.438;-2.006;2022-09-03T04:51:11;100064.78;;;14.14;88.50
66668;BME280;57205;51.438;-2.006;2022-09-03T04:53:42;100068.75;;;14.16;88.57
66668;BME280;57205;51.438;-2.006;2022-09-03T04:56:15;100066.56;;;14.18;89.21
66668;BME280;57205;51.438;-2.006;2022-09-03T04:58:42;100065.50;;;14.19;89.13
66668;BME280;57205;51.438;-2.006;2022-09-03T05:01:15;100061.69;;;14.20;89.51
66668;BME280;57205;51.438;-2.006;2022-09-03T05:03:41;100064.00;;;14.27;89.38
66668;BME280;57205;51.438;-2.006;2022-09-03T05:06:07;100061.78;;;14.29;90.03
66668;BME280;57205;51.438;-2.006;2022-09-03T05:08:33;100062.00;;;14.32;90.09
66668;BME280;57205;51.438;-2.006;2022-09-03T05:11:05;100061.59;;;14.39;90.58
66668;BME280;57205;51.438;-2.006;2022-09-03T05:13:31;100059.88;;;14.43;90.40
66668;BME280;57205;51.438;-2.006;2022-09-03T05:16:01;100051.19;;;14.46;90.48
66668;BME280;57205;51.438;-2.006;2022-09-03T05:18:28;100055.19;;;14.48;90.73
66668;BME280;57205;51.438;-2.006;2022-09-03T05:21:01;100052.97;;;14.50;90.91
66668;BME280;57205;51.438;-2.006;2022-09-03T05:23:27;100050.00;;;14.52;90.74
66668;BME280;57205;51.438;-2.006;2022-09-03T05:25:59;100060.13;;;14.55;90.94
66668;BME280;57205;51.438;-2.006;2022-09-03T05:28:26;100055.88;;;14.54;91.25
66668;BME280;57205;51.438;-2.006;2022-09-03T05:31:00;100057.16;;;14.56;91.01
66668;BME280;57205;51.438;-2.006;2022-09-03T05:33:26;100057.16;;;14.56;91.26
66668;BME280;57205;51.438;-2.006;2022-09-03T05:35:52;100060.03;;;14.60;91.42
66668;BME280;57205;51.438;-2.006;2022-09-03T05:38:18;100059.13;;;14.64;91.34
66668;BME280;57205;51.438;-2.006;2022-09-03T05:40:44;100058.81;;;14.66;91.33
66668;BME280;57205;51.438;-2.006;2022-09-03T05:43:09;100060.09;;;14.68;91.42
66668;BME280;57205;51.438;-2.006;2022-09-03T05:45:35;100068.38;;;14.72;91.72
66668;BME280;57205;51.438;-2.006;2022-09-03T05:48:01;100058.91;;;14.75;91.53
66668;BME280;57205;51.438;-2.006;2022-09-03T05:50:27;100057.97;;;14.79;91.51
66668;BME280;57205;51.438;-2.006;2022-09-03T05:52:52;100067.66;;;14.80;91.54
66668;BME280;57205;51.438;-2.006;2022-09-03T05:55:18;100058.94;;;14.83;91.14
66668;BME280;57205;51.438;-2.006;2022-09-03T05:57:44;100066.31;;;14.91;91.10
66668;BME280;57205;51.438;-2.006;2022-09-03T06:00:11;100059.03;;;14.92;90.98
66668;BME280;57205;51.438;-2.006;2022-09-03T06:02:36;100065.28;;;15.01;90.92
66668;BME280;57205;51.438;-2.006;2022-09-03T06:05:02;100062.13;;;15.07;90.72
66668;BME280;57205;51.438;-2.006;2022-09-03T06:07:28;100062.03;;;15.12;90.43
66668;BME280;57205;51.438;-2.006;2022-09-03T06:09:53;100061.59;;;15.19;90.18
66668;BME280;57205;51.438;-2.006;2022-09-03T06:12:19;100058.75;;;15.24;90.27
66668;BME280;57205;51.438;-2.006;2022-09-03T06:14:44;100059.91;;;15.31;90.00
66668;BME280;57205;51.438;-2.006;2022-09-03T06:17:10;100068.34;;;15.38;89.48
66668;BME280;57205;51.438;-2.006;2022-09-03T06:19:37;100076.03;;;15.45;88.97
66668;BME280;57205;51.438;-2.006;2022-09-03T06:22:03;100074.50;;;15.52;88.79
66668;BME280;57205;51.438;-2.006;2022-09-03T06:24:29;100070.25;;;15.60;87.70
66668;BME280;57205;51.438;-2.006;2022-09-03T06:26:56;100074.09;;;15.68;87.59
66668;BME280;57205;51.438;-2.006;2022-09-03T06:29:21;100068.13;;;15.79;87.06
66668;BME280;57205;51.438;-2.006;2022-09-03T06:31:47;100058.63;;;15.90;86.81
66668;BME280;57205;51.438;-2.006;2022-09-03T06:34:13;100070.25;;;16.08;86.09
66668;BME280;57205;51.438;-2.006;2022-09-03T06:36:39;100066.81;;;16.24;84.63
66668;BME280;57205;51.438;-2.006;2022-09-03T06:39:05;100072.91;;;16.55;83.63
66668;BME280;57205;51.438;-2.006;2022-09-03T06:41:31;100075.66;;;16.81;82.51
66668;BME280;57205;51.438;-2.006;2022-09-03T06:44:05;100079.59;;;17.18;81.50
66668;BME280;57205;51.438;-2.006;2022-09-03T06:46:33;100078.72;;;17.60;78.05
66668;BME280;57205;51.438;-2.006;2022-09-03T06:48:59;100080.09;;;17.75;76.80
66668;BME280;57205;51.438;-2.006;2022-09-03T06:51:26;100089.91;;;17.96;76.41
66668;BME280;57205;51.438;-2.006;2022-09-03T06:53:54;100088.00;;;18.17;75.53
66668;BME280;57205;51.438;-2.006;2022-09-03T06:56:23;100083.44;;;18.38;74.39
66668;BME280;57205;51.438;-2.006;2022-09-03T06:58:52;100081.50;;;18.47;73.22
66668;BME280;57205;51.438;-2.006;2022-09-03T07:01:20;100083.84;;;18.58;73.32
66668;BME280;57205;51.438;-2.006;2022-09-03T07:03:51;100084.88;;;18.65;72.71
66668;BME280;57205;51.438;-2.006;2022-09-03T07:06:20;100082.50;;;18.64;72.53
66668;BME280;57205;51.438;-2.006;2022-09-03T07:08:46;100081.47;;;18.56;72.47
66668;BME280;57205;51.438;-2.006;2022-09-03T07:11:13;100090.22;;;18.53;72.95
66668;BME280;57205;51.438;-2.006;2022-09-03T07:13:42;100082.44;;;18.52;73.08
66668;BME280;57205;51.438;-2.006;2022-09-03T07:16:20;100088.53;;;18.48;73.14
66668;BME280;57205;51.438;-2.006;2022-09-03T07:18:46;100087.19;;;18.55;72.87
66668;BME280;57205;51.438;-2.006;2022-09-03T07:21:14;100085.75;;;18.57;73.21
66668;BME280;57205;51.438;-2.006;2022-09-03T07:23:40;100087.19;;;18.55;74.01
66668;BME280;57205;51.438;-2.006;2022-09-03T07:26:17;100093.06;;;18.57;73.92
66668;BME280;57205;51.438;-2.006;2022-09-03T07:28:44;100092.75;;;18.79;73.32
66668;BME280;57205;51.438;-2.006;2022-09-03T07:31:16;100087.03;;;19.13;72.63
66668;BME280;57205;51.438;-2.006;2022-09-03T07:33:44;100093.50;;;19.41;71.57
66668;BME280;57205;51.438;-2.006;2022-09-03T07:36:13;100094.66;;;19.64;70.59
66668;BME280;57205;51.438;-2.006;2022-09-03T07:38:40;100096.03;;;19.70;70.87
66668;BME280;57205;51.438;-2.006;2022-09-03T07:41:08;100092.06;;;19.68;71.11
66668;BME280;57205;51.438;-2.006;2022-09-03T07:43:36;100093.78;;;19.72;71.41
66668;BME280;57205;51.438;-2.006;2022-09-03T07:46:04;100096.50;;;19.72;71.11
66668;BME280;57205;51.438;-2.006;2022-09-03T07:48:31;100092.28;;;19.63;71.26
66668;BME280;57205;51.438;-2.006;2022-09-03T07:50:58;100104.81;;;19.55;71.17
66668;BME280;57205;51.438;-2.006;2022-09-03T07:53:28;100105.34;;;19.36;71.63
66668;BME280;57205;51.438;-2.006;2022-09-03T07:56:00;100103.81;;;19.27;72.31
66668;BME280;57205;51.438;-2.006;2022-09-03T07:58:28;100096.94;;;19.09;73.27
66668;BME280;57205;51.438;-2.006;2022-09-03T08:00:54;100105.94;;;19.01;73.20
66668;BME280;57205;51.438;-2.006;2022-09-03T08:03:21;100108.88;;;18.96;73.30
66668;BME280;57205;51.438;-2.006;2022-09-03T08:05:46;100110.59;;;19.00;73.42
66668;BME280;57205;51.438;-2.006;2022-09-03T08:08:12;100110.25;;;19.02;72.83
66668;BME280;57205;51.438;-2.006;2022-09-03T08:10:39;100103.81;;;19.06;72.86
66668;BME280;57205;51.438;-2.006;2022-09-03T08:13:05;100106.41;;;19.03;72.97
66668;BME280;57205;51.438;-2.006;2022-09-03T08:15:32;100104.50;;;19.03;72.62
66668;BME280;57205;51.438;-2.006;2022-09-03T08:17:59;100105.09;;;19.09;72.74
66668;BME280;57205;51.438;-2.006;2022-09-03T08:20:26;100101.19;;;19.18;72.33
66668;BME280;57205;51.438;-2.006;2022-09-03T08:22:52;100102.50;;;19.33;71.83
66668;BME280;57205;51.438;-2.006;2022-09-03T08:25:25;100102.56;;;19.45;70.98
66668;BME280;57205;51.438;-2.006;2022-09-03T08:27:50;100106.88;;;19.58;69.76
66668;BME280;57205;51.438;-2.006;2022-09-03T08:30:16;100100.66;;;19.70;69.58
66668;BME280;57205;51.438;-2.006;2022-09-03T08:32:41;100092.88;;;19.80;69.00
66668;BME280;57205;51.438;-2.006;2022-09-03T08:35:07;100100.13;;;19.88;68.89
66668;BME280;57205;51.438;-2.006;2022-09-03T08:37:34;100103.28;;;19.90;68.71
66668;BME280;57205;51.438;-2.006;2022-09-03T08:39:59;100103.09;;;19.95;69.09
66668;BME280;57205;51.438;-2.006;2022-09-03T08:45:06;100106.72;;;20.11;69.40
66668;BME280;57205;51.438;-2.006;2022-09-03T08:48:09;100102.19;;;20.15;69.43
66668;BME280;57205;51.438;-2.006;2022-09-03T08:50:42;100112.28;;;20.27;68.95
66668;BME280;57205;51.438;-2.006;2022-09-03T08:56:06;100115.78;;;20.39;66.95
66668;BME280;57205;51.438;-2.006;2022-09-03T08:58:34;100113.19;;;20.43;67.04
66668;BME280;57205;51.438;-2.006;2022-09-03T09:03:52;100114.28;;;20.42;65.44
66668;BME280;57205;51.438;-2.006;2022-09-03T09:09:32;100127.44;;;20.28;65.83
66668;BME280;57205;51.438;-2.006;2022-09-03T09:20:53;100128.22;;;20.53;64.86
66668;BME280;57205;51.438;-2.006;2022-09-03T09:23:25;100125.53;;;20.53;65.15
66668;BME280;57205;51.438;-2.006;2022-09-03T09:25:53;100128.44;;;20.60;64.95
66668;BME280;57205;51.438;-2.006;2022-09-03T09:28:31;100131.50;;;20.58;64.28
66668;BME280;57205;51.438;-2.006;2022-09-03T09:31:02;100135.25;;;20.66;64.33
66668;BME280;57205;51.438;-2.006;2022-09-03T09:33:29;100131.81;;;20.69;64.39
66668;BME280;57205;51.438;-2.006;2022-09-03T09:35:58;100132.03;;;20.76;63.93
66668;BME280;57205;51.438;-2.006;2022-09-03T09:38:35;100136.09;;;20.82;63.81
66668;BME280;57205;51.438;-2.006;2022-09-03T09:43:40;100135.97;;;21.02;63.88
66668;BME280;57205;51.438;-2.006;2022-09-03T09:46:12;100126.56;;;21.27;63.18
66668;BME280;57205;51.438;-2.006;2022-09-03T09:48:49;100124.13;;;21.66;62.45
66668;BME280;57205;51.438;-2.006;2022-09-03T09:51:21;100123.16;;;21.74;61.95
66668;BME280;57205;51.438;-2.006;2022-09-03T09:53:48;100132.88;;;21.87;61.01
66668;BME280;57205;51.438;-2.006;2022-09-03T09:56:27;100134.53;;;21.91;61.01
66668;BME280;57205;51.438;-2.006;2022-09-03T09:59:03;100132.16;;;22.21;60.31
66668;BME280;57205;51.438;-2.006;2022-09-03T10:01:29;100128.72;;;22.24;59.92
66668;BME280;57205;51.438;-2.006;2022-09-03T10:06:35;100133.75;;;22.22;60.63
66668;BME280;57205;51.438;-2.006;2022-09-03T10:09:23;100132.50;;;22.19;60.48
66668;BME280;57205;51.438;-2.006;2022-09-03T10:14:27;100126.53;;;21.98;61.46
66668;BME280;57205;51.438;-2.006;2022-09-03T10:25:25;100115.44;;;22.73;58.96
66668;BME280;57205;51.438;-2.006;2022-09-03T10:27:52;100122.28;;;22.82;58.34
66668;BME280;57205;51.438;-2.006;2022-09-03T10:30:21;100121.34;;;22.94;57.45
66668;BME280;57205;51.438;-2.006;2022-09-03T10:33:49;100111.56;;;22.93;57.23
66668;BME280;57205;51.438;-2.006;2022-09-03T10:36:08;100113.03;;;22.87;57.49
66668;BME280;57205;51.438;-2.006;2022-09-03T10:38:38;100108.72;;;22.86;58.17
66668;BME280;57205;51.438;-2.006;2022-09-03T10:46:50;100118.41;;;23.21;57.04
66668;BME280;57205;51.438;-2.006;2022-09-03T10:52:09;100116.41;;;23.38;56.87
66668;BME280;57205;51.438;-2.006;2022-09-03T11:00:23;100106.69;;;23.21;56.75
66668;BME280;57205;51.438;-2.006;2022-09-03T11:08:16;100101.66;;;23.61;55.09
66668;BME280;57205;51.438;-2.006;2022-09-03T11:10:51;100106.25;;;23.57;54.77
66668;BME280;57205;51.438;-2.006;2022-09-03T11:13:39;100104.72;;;23.60;54.32
66668;BME280;57205;51.438;-2.006;2022-09-03T11:16:17;100103.22;;;23.62;53.90
66668;BME280;57205;51.438;-2.006;2022-09-03T11:18:49;100099.53;;;23.74;53.33
66668;BME280;57205;51.438;-2.006;2022-09-03T11:21:20;100105.94;;;23.62;53.84
66668;BME280;57205;51.438;-2.006;2022-09-03T11:23:57;100105.47;;;23.57;54.74
66668;BME280;57205;51.438;-2.006;2022-09-03T11:26:25;100109.97;;;23.68;54.34
66668;BME280;57205;51.438;-2.006;2022-09-03T11:29:00;100102.56;;;23.69;54.32
66668;BME280;57205;51.438;-2.006;2022-09-03T11:31:50;100117.19;;;23.57;54.17
66668;BME280;57205;51.438;-2.006;2022-09-03T11:34:26;100110.06;;;23.53;54.18
66668;BME280;57205;51.438;-2.006;2022-09-03T11:42:08;100109.97;;;23.91;53.19
66668;BME280;57205;51.438;-2.006;2022-09-03T11:44:41;100107.88;;;23.84;53.11
66668;BME280;57205;51.438;-2.006;2022-09-03T11:47:15;100104.19;;;23.96;53.10
66668;BME280;57205;51.438;-2.006;2022-09-03T11:49:46;100106.69;;;24.04;52.77
66668;BME280;57205;51.438;-2.006;2022-09-03T11:52:24;100113.25;;;24.00;52.43
66668;BME280;57205;51.438;-2.006;2022-09-03T11:54:50;100116.34;;;23.98;52.75
66668;BME280;57205;51.438;-2.006;2022-09-03T11:57:24;100111.47;;;23.88;52.86
66668;BME280;57205;51.438;-2.006;2022-09-03T11:59:51;100103.47;;;23.76;53.11
66668;BME280;57205;51.438;-2.006;2022-09-03T12:02:31;100100.31;;;23.74;52.99
66668;BME280;57205;51.438;-2.006;2022-09-03T12:05:20;100108.63;;;23.59;53.55
66668;BME280;57205;51.438;-2.006;2022-09-03T12:13:53;100120.25;;;23.33;54.20
66668;BME280;57205;51.438;-2.006;2022-09-03T12:16:33;100110.97;;;23.18;54.34
66668;BME280;57205;51.438;-2.006;2022-09-03T12:19:06;100114.03;;;23.17;55.06
66668;BME280;57205;51.438;-2.006;2022-09-03T12:21:39;100115.38;;;23.26;54.84
66668;BME280;57205;51.438;-2.006;2022-09-03T12:24:06;100116.91;;;23.24;54.48
66668;BME280;57205;51.438;-2.006;2022-09-03T12:26:41;100127.03;;;23.23;54.58
66668;BME280;57205;51.438;-2.006;2022-09-03T12:29:21;100110.28;;;23.25;54.53
66668;BME280;57205;51.438;-2.006;2022-09-03T12:31:48;100126.53;;;23.18;54.39
66668;BME280;57205;51.438;-2.006;2022-09-03T12:34:19;100111.56;;;22.93;54.96
66668;BME280;57205;51.438;-2.006;2022-09-03T12:36:47;100119.47;;;22.79;55.44
66668;BME280;57205;51.438;-2.006;2022-09-03T12:39:15;100117.47;;;22.76;56.21
66668;BME280;57205;51.438;-2.006;2022-09-03T12:42:02;100120.50;;;22.90;56.18
66668;BME280;57205;51.438;-2.006;2022-09-03T12:44:38;100117.91;;;23.16;55.56
66668;BME280;57205;51.438;-2.006;2022-09-03T12:49:41;100127.69;;;23.36;54.61
66668;BME280;57205;51.438;-2.006;2022-09-03T12:57:29;100122.97;;;23.33;53.69
66668;BME280;57205;51.438;-2.006;2022-09-03T13:00:03;100136.09;;;23.27;53.45
66668;BME280;57205;51.438;-2.006;2022-09-03T13:02:41;100131.63;;;23.00;54.10
66668;BME280;57205;51.438;-2.006;2022-09-03T13:05:14;100131.19;;;22.79;54.94
66668;BME280;57205;51.438;-2.006;2022-09-03T13:07:42;100130.78;;;22.62;55.42
66668;BME280;57205;51.438;-2.006;2022-09-03T13:10:27;100137.75;;;22.44;57.35
66668;BME280;57205;51.438;-2.006;2022-09-03T13:13:00;100142.88;;;22.14;59.55
66668;BME280;57205;51.438;-2.006;2022-09-03T13:15:27;100143.94;;;21.94;61.17
66668;BME280;57205;51.438;-2.006;2022-09-03T13:20:33;100133.41;;;21.49;63.98
66668;BME280;57205;51.438;-2.006;2022-09-03T13:29:16;100148.97;;;21.09;65.87
66668;BME280;57205;51.438;-2.006;2022-09-03T13:31:52;100148.63;;;20.98;66.22
66668;BME280;57205;51.438;-2.006;2022-09-03T13:34:24;100146.97;;;20.94;66.31
66668;BME280;57205;51.438;-2.006;2022-09-03T13:37:34;100147.38;;;20.96;65.90
66668;BME280;57205;51.438;-2.006;2022-09-03T13:39:59;100147.94;;;21.13;65.62
66668;BME280;57205;51.438;-2.006;2022-09-03T13:42:36;100154.28;;;21.45;64.79
66668;BME280;57205;51.438;-2.006;2022-09-03T13:46:25;100154.56;;;21.83;62.31
66668;BME280;57205;51.438;-2.006;2022-09-03T13:48:38;100154.22;;;22.16;60.45
66668;BME280;57205;51.438;-2.006;2022-09-03T13:51:29;100146.00;;;22.47;59.13
66668;BME280;57205;51.438;-2.006;2022-09-03T13:54:25;100135.78;;;22.75;56.91
66668;BME280;57205;51.438;-2.006;2022-09-03T13:57:22;100139.81;;;22.81;56.13
66668;BME280;57205;51.438;-2.006;2022-09-03T14:00:05;100131.84;;;22.92;55.88
66668;BME280;57205;51.438;-2.006;2022-09-03T14:11:20;100137.47;;;23.18;54.75
66668;BME280;57205;51.438;-2.006;2022-09-03T14:14:11;100136.03;;;23.24;54.35
66668;BME280;57205;51.438;-2.006;2022-09-03T14:16:58;100149.09;;;23.15;54.72
66668;BME280;57205;51.438;-2.006;2022-09-03T14:19:47;100145.00;;;23.05;54.77
66668;BME280;57205;51.438;-2.006;2022-09-03T14:22:20;100130.84;;;23.00;54.91
66668;BME280;57205;51.438;-2.006;2022-09-03T14:24:57;100141.69;;;22.96;55.01
66668;BME280;57205;51.438;-2.006;2022-09-03T14:27:30;100146.34;;;22.96;54.52
66668;BME280;57205;51.438;-2.006;2022-09-03T14:30:03;100152.63;;;22.96;54.77
66668;BME280;57205;51.438;-2.006;2022-09-03T14:33:22;100152.25;;;22.98;54.71
66668;BME280;57205;51.438;-2.006;2022-09-03T14:35:48;100144.19;;;23.05;53.84
66668;BME280;57205;51.438;-2.006;2022-09-03T14:49:09;100142.31;;;22.55;52.22
66668;BME280;57205;51.438;-2.006;2022-09-03T14:54:42;100148.44;;;22.83;50.83
66668;BME280;57205;51.438;-2.006;2022-09-03T15:06:06;100154.69;;;23.22;49.23
66668;BME280;57205;51.438;-2.006;2022-09-03T15:09:10;100159.34;;;23.37;47.38
66668;BME280;57205;51.438;-2.006;2022-09-03T15:12:04;100162.75;;;23.34;47.48
66668;BME280;57205;51.438;-2.006;2022-09-03T15:14:48;100162.59;;;23.27;47.39
66668;BME280;57205;51.438;-2.006;2022-09-03T15:30:45;100158.84;;;22.47;49.34
66668;BME280;57205;51.438;-2.006;2022-09-03T15:33:23;100171.59;;;22.43;49.36
66668;BME280;57205;51.438;-2.006;2022-09-03T15:39:02;100171.78;;;22.18;50.02
66668;BME280;57205;51.438;-2.006;2022-09-03T15:44:00;100186.81;;;22.28;50.12
66668;BME280;57205;51.438;-2.006;2022-09-03T15:49:09;100192.03;;;22.33;50.26
66668;BME280;57205;51.438;-2.006;2022-09-03T15:57:16;100198.00;;;22.07;50.16
66668;BME280;57205;51.438;-2.006;2022-09-03T16:00:00;100198.63;;;22.01;50.58
66668;BME280;57205;51.438;-2.006;2022-09-03T16:02:44;100215.00;;;21.89;50.49
66668;BME280;57205;51.438;-2.006;2022-09-03T16:05:15;100216.75;;;21.81;51.02
66668;BME280;57205;51.438;-2.006;2022-09-03T16:10:19;100219.06;;;21.67;50.45
66668;BME280;57205;51.438;-2.006;2022-09-03T16:13:08;100210.81;;;21.64;50.40
66668;BME280;57205;51.438;-2.006;2022-09-03T16:16:01;100218.44;;;21.58;49.87
66668;BME280;57205;51.438;-2.006;2022-09-03T16:18:44;100226.41;;;21.51;48.01
66668;BME280;57205;51.438;-2.006;2022-09-03T16:21:42;100233.78;;;21.51;47.62
66668;BME280;57205;51.438;-2.006;2022-09-03T16:24:48;100232.78;;;21.43;47.08
66668;BME280;57205;51.438;-2.006;2022-09-03T16:27:20;100234.97;;;21.38;47.69
66668;BME280;57205;51.438;-2.006;2022-09-03T16:30:07;100235.44;;;21.27;47.82
66668;BME280;57205;51.438;-2.006;2022-09-03T16:32:37;100233.56;;;21.16;46.19
66668;BME280;57205;51.438;-2.006;2022-09-03T16:38:27;100240.25;;;21.06;46.95
66668;BME280;57205;51.438;-2.006;2022-09-03T16:40:56;100238.75;;;21.09;47.11
66668;BME280;57205;51.438;-2.006;2022-09-03T16:57:27;100242.31;;;20.73;50.12
66668;BME280;57205;51.438;-2.006;2022-09-03T17:00:10;100236.75;;;20.70;50.69